メインページ
METAR-TAF:

METAR-TAF

空港 :

エリー, ペンシルバニア州, アメリカ合衆国

緯度: 42-04-48N, 経度: 080-10-57W, 海抜: 223m

現時点の気象観測

当レポートは16分前の17:31(UTC)に作成
西/北西の風 7kt
気温 26°C
湿度 74%
気圧 1014 hPa
視程: 16.1km
高度1100ftの千切れ雲あり

METAR: KERI 211731Z 30007KT 10SM BKN011 26/21 A2995 RMK AO2 T02560206

時間: 13:47 (17:47 UTC)

予報

当レポートは24分前の17:23(UTC)に作成
予報は21日の 18時(UTC)から 22日の 18時(UTC)まで有効
北西の風 6kt
視程: 10km
高度2500ftの雲は散在している
21日の 2100時(UTC)から
の風 6kt
視程: 10km
高度3000ftの千切れ雲あり, 積乱雲.
近辺で激しい雷雨
22日の 0000時(UTC)から
北/北西の風 4kt
視程: 10km
高度13000ftの千切れ雲あり
22日の 1500時(UTC)から
北/北東の風 5kt
視程: 10km
高度3000ftの曇り
22日の 1700時(UTC)から
の風 6kt
視程: 10km
高度6000ftの曇り

TAF: KERI 211723Z 2118/2218 31006KT P6SM SCT025 FM212100 35006KT P6SM VCTS BKN030CB FM220000 34004KT P6SM BKN130 FM221500 03005KT P6SM OVC030 FM221700 36006KT P6SM OVC060

4,000以上の空港の気象観測と天気予報(METAR報とTAF報)

利用可能な観測所は地図上に黄色い丸と赤い丸で示す。

丸の上にカーソルを重ねると観測所名を参照できる。

次にクリックすると気象観測と天気予報を参照できる。

マップの切り替え:黒色「×」印の緑ボタンをクリックして拡大、「-」印の緑ボタンをクリックして縮小、緑色の三角印をクリックして隣りの地図に切り替え


METAR-TAF: